createdAt,value
2023-05-02T00:00:37.393Z,1.27
2023-05-02T00:05:41.272Z,1.00
2023-05-02T00:10:44.239Z,1.10
2023-05-02T00:15:47.300Z,1.15
2023-05-02T00:20:50.962Z,0.90
2023-05-02T00:25:54.016Z,0.98
2023-05-02T00:30:56.966Z,0.93
2023-05-02T00:35:59.979Z,0.70
2023-05-02T00:41:02.952Z,0.70
2023-05-02T00:46:07.867Z,0.82
2023-05-02T00:51:13.707Z,0.80
2023-05-02T00:56:16.774Z,0.68
2023-05-02T01:01:35.605Z,0.75
2023-05-02T01:07:00.133Z,0.82
2023-05-02T01:12:44.843Z,0.90
2023-05-02T01:17:49.946Z,0.90
2023-05-02T01:22:53.138Z,1.08
2023-05-02T01:28:25.402Z,0.93
2023-05-02T01:33:30.999Z,1.33
2023-05-02T01:38:35.243Z,1.20
2023-05-02T01:43:40.645Z,1.38
2023-05-02T01:48:49.718Z,1.27
2023-05-02T01:53:54.237Z,1.58
2023-05-02T01:58:58.371Z,1.35
2023-05-02T02:04:02.453Z,1.25
2023-05-02T02:09:07.456Z,1.60
2023-05-02T02:14:19.679Z,1.33
2023-05-02T02:19:44.481Z,1.30
2023-05-02T02:24:48.921Z,1.70
2023-05-02T02:29:51.915Z,1.20
2023-05-02T02:34:55.618Z,1.60
2023-05-02T02:40:07.607Z,1.42
2023-05-02T02:45:47.663Z,1.60
2023-05-02T02:51:01.312Z,1.40
2023-05-02T02:56:20.323Z,1.40
2023-05-02T03:01:25.926Z,1.48
2023-05-02T03:06:29.918Z,1.77
2023-05-02T03:11:33.302Z,1.70
2023-05-02T03:16:40.780Z,1.40
2023-05-02T03:21:49.232Z,1.58
2023-05-02T03:26:57.039Z,1.40
2023-05-02T03:32:03.989Z,1.20
2023-05-02T03:37:07.450Z,1.13
2023-05-02T03:42:10.574Z,1.33
2023-05-02T03:47:14.273Z,2.67
2023-05-02T03:52:18.764Z,1.27
2023-05-02T03:57:23.321Z,1.48
2023-05-02T04:02:26.764Z,1.02
2023-05-02T04:07:30.618Z,1.13
2023-05-02T04:12:38.090Z,1.15
2023-05-02T04:17:41.436Z,0.95
2023-05-02T04:22:48.227Z,1.25
2023-05-02T04:27:51.572Z,1.17
2023-05-02T04:32:57.975Z,1.27
2023-05-02T04:38:03.521Z,1.25
2023-05-02T04:43:08.068Z,1.30
2023-05-02T04:48:23.253Z,1.65
2023-05-02T04:53:26.396Z,1.40
2023-05-02T04:58:29.850Z,1.30
2023-05-02T05:03:37.059Z,1.30
2023-05-02T05:08:42.562Z,1.75
2023-05-02T05:13:45.634Z,1.70
2023-05-02T05:18:49.904Z,1.55
2023-05-02T05:23:53.223Z,1.48
2023-05-02T05:29:01.176Z,1.42
2023-05-02T05:34:10.302Z,1.55
2023-05-02T05:39:21.409Z,1.10
2023-05-02T05:44:27.746Z,1.30
2023-05-02T05:49:32.957Z,1.42
2023-05-02T05:54:36.147Z,1.42
2023-05-02T05:59:39.207Z,1.25
2023-05-02T06:04:44.057Z,1.17
2023-05-02T06:09:47.461Z,1.27
2023-05-02T06:14:52.970Z,1.27
2023-05-02T06:19:57.809Z,1.00
2023-05-02T06:25:01.351Z,1.00
2023-05-02T06:30:07.100Z,0.90
2023-05-02T06:35:11.936Z,0.80
2023-05-02T06:40:15.299Z,1.00
2023-05-02T06:45:18.342Z,0.80
2023-05-02T06:50:21.399Z,1.17
2023-05-02T06:55:24.491Z,1.20
2023-05-02T07:00:27.481Z,1.00
2023-05-02T07:05:31.443Z,1.02
2023-05-02T07:10:34.558Z,1.35
2023-05-02T07:15:37.624Z,1.00
2023-05-02T07:20:42.642Z,0.60
2023-05-02T07:25:45.937Z,0.70
2023-05-02T07:30:49.202Z,0.60
2023-05-02T07:35:52.442Z,0.80
2023-05-02T07:40:59.205Z,1.00
2023-05-02T07:46:06.522Z,0.70
2023-05-02T07:51:11.298Z,0.90
2023-05-02T07:56:14.278Z,0.60
2023-05-02T08:01:17.551Z,0.60
2023-05-02T08:06:23.607Z,1.10
2023-05-02T08:11:26.732Z,0.80
2023-05-02T08:16:29.917Z,0.73
2023-05-02T08:21:34.647Z,0.70
2023-05-02T08:26:37.680Z,0.68
2023-05-02T08:31:41.233Z,0.40
2023-05-02T08:36:44.296Z,0.80
2023-05-02T08:41:47.317Z,0.75
2023-05-02T08:46:51.432Z,0.80
2023-05-02T08:51:56.289Z,0.77
2023-05-02T08:57:00.120Z,0.95
2023-05-02T09:02:22.961Z,1.30
2023-05-02T09:07:26.175Z,0.90
2023-05-02T09:12:29.192Z,1.10
2023-05-02T09:17:40.892Z,1.15
2023-05-02T09:22:51.650Z,1.05
2023-05-02T09:27:56.306Z,0.88
2023-05-02T09:32:59.514Z,0.98
2023-05-02T09:38:02.610Z,0.73
2023-05-02T09:43:17.001Z,1.13
2023-05-02T09:48:19.976Z,1.02
2023-05-02T09:53:25.045Z,1.38
2023-05-02T09:58:28.374Z,1.63
2023-05-02T10:03:32.613Z,2.05
2023-05-02T10:08:37.084Z,2.17
2023-05-02T10:13:43.069Z,1.80
2023-05-02T10:18:54.101Z,1.80
2023-05-02T10:23:57.954Z,1.80
2023-05-02T10:29:01.810Z,2.03
2023-05-02T10:34:07.538Z,6.35
2023-05-02T10:39:10.941Z,1.70
2023-05-02T10:44:14.106Z,1.90
2023-05-02T10:49:17.482Z,1.83
2023-05-02T10:54:26.662Z,1.92
2023-05-02T10:59:29.604Z,1.98
2023-05-02T11:05:05.135Z,2.53
2023-05-02T11:10:18.311Z,1.85
2023-05-02T11:15:29.953Z,1.42
2023-05-02T11:20:33.337Z,1.42
2023-05-02T11:25:40.774Z,1.70
2023-05-02T11:30:45.810Z,1.02
2023-05-02T11:35:50.671Z,0.98
2023-05-02T11:40:59.079Z,1.30
2023-05-02T11:46:02.849Z,1.60
2023-05-02T11:51:07.517Z,2.20
2023-05-02T11:56:10.598Z,2.30
2023-05-02T12:01:14.812Z,2.42
2023-05-02T12:06:20.160Z,2.63
2023-05-02T12:11:24.253Z,2.45
2023-05-02T12:16:27.398Z,2.88
2023-05-02T12:21:30.857Z,2.58
2023-05-02T12:26:34.084Z,2.53
2023-05-02T12:31:37.254Z,2.85
2023-05-02T12:36:45.637Z,2.97
2023-05-02T12:41:48.635Z,3.15
2023-05-02T12:47:01.731Z,3.00
2023-05-02T12:52:04.924Z,3.22
2023-05-02T12:57:08.660Z,3.50
2023-05-02T13:02:11.926Z,3.92
2023-05-02T13:07:14.973Z,3.63
2023-05-02T13:12:18.423Z,3.53
2023-05-02T13:17:22.958Z,3.50
2023-05-02T13:22:26.574Z,3.13
2023-05-02T13:27:29.607Z,3.10
2023-05-02T13:32:32.804Z,3.92
2023-05-02T13:37:37.063Z,3.72
2023-05-02T13:42:40.211Z,2.80
2023-05-02T13:47:43.379Z,3.50
2023-05-02T13:52:48.899Z,3.10
2023-05-02T13:57:52.347Z,2.83
2023-05-02T14:02:55.946Z,2.85
2023-05-02T14:08:05.310Z,2.90
2023-05-02T14:13:08.354Z,3.13
2023-05-02T14:18:11.482Z,2.65
2023-05-02T14:23:14.642Z,3.00
2023-05-02T14:28:17.590Z,2.60
2023-05-02T14:33:20.593Z,2.72
2023-05-02T14:38:23.754Z,2.63
2023-05-02T14:43:27.812Z,3.17
2023-05-02T14:48:31.004Z,2.65
2023-05-02T14:53:34.076Z,2.35
2023-05-02T14:58:37.111Z,2.33
2023-05-02T15:03:56.580Z,3.00
2023-05-02T15:09:03.194Z,2.42
2023-05-02T15:14:06.234Z,2.97
2023-05-02T15:19:09.415Z,2.47
2023-05-02T15:24:12.566Z,2.40
2023-05-02T15:29:15.728Z,2.80
2023-05-02T15:34:18.806Z,3.30
2023-05-02T15:39:23.037Z,2.45
2023-05-02T15:44:26.856Z,2.80
2023-05-02T15:49:33.940Z,2.20
2023-05-02T15:54:39.639Z,2.58
2023-05-02T15:59:42.592Z,3.55
2023-05-02T16:04:45.683Z,2.47
2023-05-02T16:09:48.652Z,2.72
2023-05-02T16:14:51.598Z,3.08
2023-05-02T16:19:54.575Z,2.72
2023-05-02T16:24:58.241Z,2.55
2023-05-02T16:30:01.412Z,2.45
2023-05-02T16:35:08.481Z,2.15
2023-05-02T16:40:12.972Z,2.70
2023-05-02T16:45:16.405Z,2.20
2023-05-02T16:50:19.595Z,2.38
2023-05-02T16:55:22.589Z,2.50
2023-05-02T17:00:25.653Z,2.38
2023-05-02T17:05:28.779Z,3.25
2023-05-02T17:10:31.857Z,2.80
2023-05-02T17:15:40.695Z,3.03
2023-05-02T17:20:43.856Z,3.28
2023-05-02T17:25:47.860Z,3.17
2023-05-02T17:30:54.879Z,3.50
2023-05-02T17:35:57.993Z,4.07
2023-05-02T17:41:01.083Z,3.90
2023-05-02T17:46:10.486Z,3.38
2023-05-02T17:51:13.682Z,3.55
2023-05-02T17:56:19.073Z,3.53
2023-05-02T18:01:22.249Z,3.13
2023-05-02T18:06:25.372Z,3.75
2023-05-02T18:11:28.477Z,2.88
2023-05-02T18:16:32.274Z,2.88
2023-05-02T18:21:37.785Z,2.92
2023-05-02T18:26:40.816Z,2.63
2023-05-02T18:31:43.911Z,2.85
2023-05-02T18:36:46.958Z,2.13
2023-05-02T18:41:49.989Z,2.72
2023-05-02T18:46:52.975Z,2.47
2023-05-02T18:51:56.333Z,1.83
2023-05-02T18:56:59.332Z,2.08
2023-05-02T19:02:02.421Z,2.10
2023-05-02T19:07:05.502Z,2.05
2023-05-02T19:12:08.579Z,2.42
2023-05-02T19:17:11.572Z,2.30
2023-05-02T19:22:15.349Z,2.53
2023-05-02T19:27:18.392Z,2.63
2023-05-02T19:32:25.499Z,2.55
2023-05-02T19:37:28.520Z,2.97
2023-05-02T19:42:31.496Z,2.17
2023-05-02T19:47:34.500Z,3.00
2023-05-02T19:52:39.362Z,2.70
2023-05-02T19:57:44.807Z,2.15
2023-05-02T20:02:49.374Z,2.20
2023-05-02T20:07:54.301Z,2.58
2023-05-02T20:12:57.271Z,1.98
2023-05-02T20:18:02.348Z,2.20
2023-05-02T20:23:05.422Z,2.00
2023-05-02T20:28:08.350Z,1.95
2023-05-02T20:33:16.239Z,1.75
2023-05-02T20:38:20.756Z,1.70
2023-05-02T20:43:23.749Z,1.83
2023-05-02T20:48:26.708Z,1.52
2023-05-02T20:53:29.669Z,1.65
2023-05-02T20:58:33.126Z,1.60
2023-05-02T21:03:39.560Z,1.85
2023-05-02T21:08:43.094Z,1.70
2023-05-02T21:13:46.181Z,1.48
2023-05-02T21:18:49.274Z,1.25
2023-05-02T21:23:52.348Z,2.10
2023-05-02T21:28:55.409Z,1.30
2023-05-02T21:33:58.451Z,1.10
2023-05-02T21:39:01.431Z,1.20
2023-05-02T21:44:04.457Z,0.82
2023-05-02T21:49:08.345Z,0.82
2023-05-02T21:54:11.347Z,0.90
2023-05-02T21:59:14.463Z,0.93
2023-05-02T22:04:18.327Z,0.80
2023-05-02T22:09:22.359Z,1.00
2023-05-02T22:14:33.726Z,0.82
2023-05-02T22:19:48.175Z,1.00
2023-05-02T22:24:51.204Z,0.70
2023-05-02T22:29:54.161Z,0.80
2023-05-02T22:34:57.185Z,0.80
2023-05-02T22:40:00.349Z,0.60
2023-05-02T22:45:03.644Z,0.68
2023-05-02T22:50:11.671Z,0.70
2023-05-02T22:55:15.047Z,0.50
2023-05-02T23:00:18.251Z,0.50
2023-05-02T23:05:21.654Z,0.50
2023-05-02T23:10:24.605Z,0.50
2023-05-02T23:15:27.676Z,1.23
2023-05-02T23:20:30.678Z,0.50
2023-05-02T23:25:36.121Z,0.40
2023-05-02T23:30:40.531Z,0.63
2023-05-02T23:35:43.663Z,0.30
2023-05-02T23:40:46.813Z,0.90
2023-05-02T23:45:49.862Z,0.50
2023-05-02T23:50:52.939Z,0.88
2023-05-02T23:55:57.553Z,0.55
